• Join FlightAware (Why Join?)
  • Login
  • US Flag 
04:22AM EDT


 

Airport Tracker/Info


-or-


 

Live Flight TrackerFlight Track Log ✈ FIN666 ✈ 28-Mar-2014 ✈ EKCH / CPH - EFHK / HEL

Flight Track Log - Related Links

Times and Time Zones

All times are in EDT time to prevent confusion due to time zone crossing. See the FIN666 flight status page for this flight to view local times or setup timezone preferences in your user account.

Time Position Orientation Groundspeed Altitude Reporting Facility
EDT Latitude Longitude Course Direction KTS MPH feet Rate Location/Type
08:27AM 55.8358 13.1062 49° Northeast  Level Estimated
08:28AM 55.9081 13.2574 50° Northeast  Level Estimated
08:29AM 55.9802 13.4092 50° Northeast  Level Estimated
08:30AM 56.0521 13.5615 50° Northeast  Level Estimated
08:31AM 56.1269 13.7211 50° Northeast  Level Estimated
08:32AM 56.2015 13.8813 50° Northeast  Level Estimated
08:33AM 56.2760 14.0421 50° Northeast  Level Estimated
08:34AM 56.3502 14.2035 50° Northeast  Level Estimated
08:35AM 56.4241 14.3656 50° Northeast  Level Estimated
08:36AM 56.4979 14.5283 51° Northeast  Level Estimated
08:37AM 56.5715 14.6916 51° Northeast  Level Estimated
08:38AM 56.6449 14.8556 51° Northeast  Level Estimated
08:39AM 56.7180 15.0202 51° Northeast  Level Estimated
08:40AM 56.7909 15.1854 51° Northeast  Level Estimated
08:41AM 56.8636 15.3513 51° Northeast  Level Estimated
08:42AM 56.9361 15.5178 51° Northeast  Level Estimated
08:43AM 57.0083 15.6850 52° Northeast  Level Estimated
08:44AM 57.0804 15.8528 52° Northeast  Level Estimated
08:45AM 57.1522 16.0213 52° Northeast  Level Estimated
08:46AM 57.2248 16.1929 52° Northeast  Level Estimated
08:47AM 57.2972 16.3652 52° Northeast  Level Estimated
08:48AM 57.3694 16.5382 52° Northeast  Level Estimated
08:49AM 57.4413 16.7119 52° Northeast  Level Estimated
08:50AM 57.5130 16.8862 53° Northeast  Level Estimated
08:51AM 57.5844 17.0612 53° Northeast  Level Estimated
08:52AM 57.6556 17.2369 53° Northeast  Level Estimated
08:53AM 57.7265 17.4133 53° Northeast  Level Estimated
08:54AM 57.7972 17.5905 53° Northeast  Level Estimated
08:55AM 57.8677 17.7682 53° Northeast  Level Estimated
08:56AM 57.9379 17.9467 53° Northeast  Level Estimated
08:57AM 58.0079 18.1259 54° Northeast  Level Estimated
08:58AM 58.0776 18.3058 54° Northeast  Level Estimated
08:59AM 58.1470 18.4864 54° Northeast  Level Estimated
09:00AM 58.2106 18.6530 54° Northeast  Level Estimated
09:01AM 58.2740 18.8201 54° Northeast  Level Estimated
09:02AM 58.3372 18.9879 54° Northeast  Level Estimated
09:03AM 58.4001 19.1562 54° Northeast  Level Estimated
09:04AM 58.4628 19.3252 55° Northeast  Level Estimated
09:05AM 58.5253 19.4948 55° Northeast  Level Estimated
09:06AM 58.5876 19.6649 55° Northeast  Level Estimated
09:07AM 58.6496 19.8357 55° Northeast  Level Estimated
09:08AM 58.7114 20.0071 55° Northeast  Level Estimated
09:09AM 58.7730 20.1791 55° Northeast  Level Estimated
09:10AM 58.8344 20.3517 55° Northeast  Level Estimated
09:11AM 58.8955 20.5249 56° Northeast  Level Estimated
09:12AM 58.9564 20.6987 56° Northeast  Level Estimated
09:13AM 59.0171 20.8732 56° Northeast  Level Estimated
09:14AM 59.0775 21.0482 56° Northeast  Level Estimated
09:15AM 59.1377 21.2239 56° Northeast  Level Estimated
09:16AM 59.1976 21.4002 56° Northeast  Level Estimated
09:17AM 59.2573 21.5771 57° Northeast  Level Estimated
09:18AM 59.3168 21.7546 57° Northeast  Level Estimated
09:19AM 59.3760 21.9328 57° Northeast  Level Estimated
09:20AM 59.4350 22.1115 57° Northeast  Level Estimated
09:21AM 59.4938 22.2909 57° Northeast  Level Estimated
09:22AM 59.5522 22.4709 57° Northeast  Level Estimated
09:23AM 59.6105 22.6516 57° Northeast  Level Estimated
09:24AM 59.6685 22.8329 58° Northeast  Level Estimated
09:25AM 59.7262 23.0147 58° Northeast  Level Estimated
09:26AM 59.7837 23.1973 58° Northeast  Level Estimated
09:27AM 59.8410 23.3804 58° Northeast  Level Estimated
09:28AM 59.8979 23.5642 58° Northeast  Level Estimated
09:29AM 59.9547 23.7486 58° Northeast  Level Estimated
09:30AM 60.0111 23.9337 59° Northeast  Level Estimated
09:31AM 60.0673 24.1193 59° Northeast  Level Estimated
09:32AM 60.1233 24.3056 59° Northeast  Level Estimated
09:33AM 60.1790 24.4926 59° Northeast  Level Estimated
09:34AM 60.2344 24.6801 59° Northeast  Level Estimated
09:35AM 60.2896 24.8683 59° Northeast  Level Estimated
09:36AM 60.3172 24.9633 60° Northeast  Level Estimated
09:37AM 60.3172 24.9633 North  Level Estimated
09:38AM 60.3172 24.9633 North  Level Estimated
09:39AM 60.3172 24.9633 North  Level Estimated
09:40AM 60.3172 24.9633 North  Level Estimated
09:41AM 60.3172 24.9633 North  Level Estimated
09:42AM 60.3172 24.9633 North  Level Estimated
09:43AM 60.3172 24.9633 North  Level Estimated
09:44AM 60.3172 24.9633 North  Level Estimated
09:45AM 60.3172 24.9633 North  Level Estimated
09:46AM 60.3172 24.9633 North  Level Estimated
09:47AM 60.3172 24.9633 North  Level Estimated
09:48AM 60.3172 24.9633 North  Level Estimated
09:49AM 60.3172 24.9633 North  Level Estimated
09:50AM 60.3172 24.9633 North  Level Estimated